Time;durP1;ratioP1;P1;durP2;ratioP2;P2;SDS_P1;SDS_P2;PMS_P1;PMS_P2;Temp;Humidity;BMP_temperature;BMP_pressure;BME280_temperature;BME280_humidity;BME280_pressure;Samples;Min_cycle;Max_cycle;Signal;HPM_P1;HPM_P2
2021/10/18 00:00:13;;;;;;;;;;;;;;;15.37;74.15;101851.59;5037714;28;839;-63
2021/10/18 00:02:38;;;;;;;;;;;;;;;15.38;73.88;101860.53;5037485;28;819;-63
2021/10/18 00:05:03;;;;;;;;;;;;;;;15.38;73.29;101855.16;5037779;28;911;-63
2021/10/18 00:07:28;;;;;;;;;;;;;;;15.38;73.73;101849.78;5037648;28;1104;-63
2021/10/18 00:09:54;;;;;;;;;;;;;;;15.37;73.71;101853.44;5037396;28;981;-63
2021/10/18 00:12:19;;;;;;;;;;;;;;;15.36;74.19;101855.25;5037173;28;1957;-63
2021/10/18 00:14:44;;;;;;;;;;;;;;;15.35;74.07;101861.59;5037585;28;1191;-63
2021/10/18 00:17:09;;;;;;;;;;;;;;;15.34;74.11;101862.56;5037142;28;1654;-64
2021/10/18 00:19:34;;;;;;;;;;;;;;;15.34;73.75;101859.00;5037420;28;910;-64
2021/10/18 00:21:59;;;;;;;;;;;;;;;15.35;73.43;101860.72;5036860;28;2153;-65
2021/10/18 00:24:24;;;;;;;;;;;;;;;15.36;74.00;101860.63;5036751;28;1332;-65
2021/10/18 00:26:49;;;;;;;;;;;;;;;15.35;74.14;101866.97;5037521;28;1636;-64
2021/10/18 00:29:14;;;;;;;;;;;;;;;15.33;73.88;101871.56;5037509;28;906;-65
2021/10/18 00:31:39;;;;;;;;;;;;;;;15.34;73.92;101875.13;5036680;28;1890;-64
2021/10/18 00:34:04;;;;;;;;;;;;;;;15.35;73.94;101871.47;5019097;28;1255;-65
2021/10/18 00:36:29;;;;;;;;;;;;;;;15.35;73.92;101872.34;5015983;28;1580;-63
2021/10/18 00:38:55;;;;;;;;;;;;;;;15.33;73.70;101876.94;5017006;28;1018;-62
2021/10/18 00:41:20;;;;;;;;;;;;;;;15.32;74.08;101875.22;5031576;28;1873;-62
2021/10/18 00:43:46;;;;;;;;;;;;;;;15.33;73.85;101876.94;5036701;28;819;-65
2021/10/18 00:46:11;;;;;;;;;;;;;;;15.33;74.00;101881.47;5036516;28;925;-65
2021/10/18 00:48:37;;;;;;;;;;;;;;;15.32;73.69;101882.41;5036814;28;894;-65
2021/10/18 00:51:02;;;;;;;;;;;;;;;15.32;73.65;101883.28;5036899;28;1005;-65
2021/10/18 00:53:27;;;;;;;;;;;;;;;15.32;74.04;101883.28;5036025;28;1977;-65
2021/10/18 00:55:52;;;;;;;;;;;;;;;15.31;73.85;101886.94;5036207;28;1868;-66
2021/10/18 00:58:17;;;;;;;;;;;;;;;15.33;73.99;101889.53;5036226;28;1381;-63
2021/10/18 01:00:42;;;;;;;;;;;;;;;15.31;73.68;101889.63;5036030;28;1916;-63
2021/10/18 01:03:07;;;;;;;;;;;;;;;15.31;74.08;101881.56;5036289;28;965;-63
2021/10/18 01:05:35;;;;;;;;;;;;;;;15.31;74.09;101875.31;5036366;28;1021;-62
2021/10/18 01:08:00;;;;;;;;;;;;;;;15.31;74.15;101869.97;5036566;28;821;-63
2021/10/18 01:10:25;;;;;;;;;;;;;;;15.30;73.97;101863.72;5036182;28;1693;-63
2021/10/18 01:12:50;;;;;;;;;;;;;;;15.31;73.86;101870.81;5036044;28;1894;-63
2021/10/18 01:15:15;;;;;;;;;;;;;;;15.29;73.45;101870.91;5036233;28;922;-63
2021/10/18 01:17:40;;;;;;;;;;;;;;;15.29;73.64;101859.31;5036059;28;2098;-63
2021/10/18 01:20:06;;;;;;;;;;;;;;;15.29;73.81;101868.22;5036188;28;791;-63
2021/10/18 01:22:31;;;;;;;;;;;;;;;15.30;73.58;101869.09;5036208;28;1081;-63
2021/10/18 01:24:56;;;;;;;;;;;;;;;15.29;73.72;101868.22;5035908;28;1329;-63
2021/10/18 01:27:21;;;;;;;;;;;;;;;15.29;73.92;101862.00;5035742;28;1132;-62
2021/10/18 01:29:46;;;;;;;;;;;;;;;15.29;73.58;101862.00;5035774;28;950;-62
2021/10/18 01:32:11;;;;;;;;;;;;;;;15.29;73.81;101859.31;5035323;28;1954;-62
2021/10/18 01:34:36;;;;;;;;;;;;;;;15.29;73.45;101859.31;5017719;28;1577;-64
2021/10/18 01:37:01;;;;;;;;;;;;;;;15.28;74.05;101860.28;5036240;28;1636;-64
2021/10/18 01:39:26;;;;;;;;;;;;;;;15.28;73.50;101858.47;5035696;28;1735;-63
2021/10/18 01:41:51;;;;;;;;;;;;;;;15.29;73.36;101859.31;5036102;28;1456;-64
2021/10/18 01:44:16;;;;;;;;;;;;;;;15.27;73.73;101858.56;5035369;28;1906;-63
2021/10/18 01:46:42;;;;;;;;;;;;;;;15.27;73.89;101856.72;5035596;28;1657;-63
2021/10/18 01:49:07;;;;;;;;;;;;;;;15.27;73.54;101850.50;5035296;28;1035;-64
2021/10/18 01:51:32;;;;;;;;;;;;;;;15.26;73.50;101846.97;5035441;28;1906;-63
2021/10/18 01:53:57;;;;;;;;;;;;;;;15.26;73.48;101846.09;5035236;28;819;-63
2021/10/18 01:56:22;;;;;;;;;;;;;;;15.26;73.86;101846.09;5035179;28;1053;-63
2021/10/18 01:58:47;;;;;;;;;;;;;;;15.26;73.54;101846.09;5035505;28;953;-63
2021/10/18 02:01:12;;;;;;;;;;;;;;;15.26;73.82;101846.09;5035337;28;957;-64
2021/10/18 02:03:37;;;;;;;;;;;;;;;15.23;73.37;101838.25;5035349;28;1018;-64
2021/10/18 02:06:02;;;;;;;;;;;;;;;15.25;73.40;101841.69;5034095;28;1826;-63
2021/10/18 02:08:27;;;;;;;;;;;;;;;15.24;73.73;101842.66;5035092;28;1191;-63
2021/10/18 02:10:52;;;;;;;;;;;;;;;15.24;74.02;101848.88;5035281;28;1784;-63
2021/10/18 02:13:17;;;;;;;;;;;;;;;15.25;73.55;101844.38;5035038;28;1894;-64
2021/10/18 02:15:43;;;;;;;;;;;;;;;15.23;73.72;101849.84;5034982;28;937;-64
2021/10/18 02:18:08;;;;;;;;;;;;;;;15.24;73.75;101842.66;5034945;28;1078;-64
2021/10/18 02:20:33;;;;;;;;;;;;;;;15.23;73.36;101841.78;5035040;28;1009;-62
2021/10/18 02:22:58;;;;;;;;;;;;;;;15.23;73.42;101830.19;5017402;28;1268;-63
2021/10/18 02:25:23;;;;;;;;;;;;;;;15.20;73.81;101833.97;5035068;28;836;-63
2021/10/18 02:27:48;;;;;;;;;;;;;;;15.22;73.41;101833.88;5034839;28;1528;-63
2021/10/18 02:30:13;;;;;;;;;;;;;;;15.23;73.30;101836.41;5034613;28;1568;-63
2021/10/18 02:32:40;;;;;;;;;;;;;;;15.22;73.34;101839.25;5034871;28;2001;-63
2021/10/18 02:35:05;;;;;;;;;;;;;;;15.21;73.79;101835.69;5034675;28;1130;-64
2021/10/18 02:37:30;;;;;;;;;;;;;;;15.21;73.41;101833.00;5034635;28;1571;-64
2021/10/18 02:39:55;;;;;;;;;;;;;;;15.20;73.92;101828.59;5034943;28;1564;-63
2021/10/18 02:42:20;;;;;;;;;;;;;;;15.21;73.67;101829.47;5034346;28;1354;-64
2021/10/18 02:44:45;;;;;;;;;;;;;;;15.20;73.67;101825.06;5033711;28;1745;-64
2021/10/18 02:47:10;;;;;;;;;;;;;;;15.20;73.51;101817.00;5034343;28;1835;-64
2021/10/18 02:49:35;;;;;;;;;;;;;;;15.18;73.90;101813.56;5034591;28;1825;-64
2021/10/18 02:52:00;;;;;;;;;;;;;;;15.19;73.63;101818.81;5034770;28;1944;-64
2021/10/18 02:54:25;;;;;;;;;;;;;;;15.19;73.63;101812.59;5034839;28;836;-64
2021/10/18 02:56:50;;;;;;;;;;;;;;;15.19;73.77;101815.28;5034905;28;972;-64
2021/10/18 02:59:16;;;;;;;;;;;;;;;15.18;73.34;101810.88;5034969;28;1009;-64
2021/10/18 03:01:41;;;;;;;;;;;;;;;15.17;73.38;101811.84;5016703;28;730;-64
2021/10/18 03:04:06;;;;;;;;;;;;;;;15.17;73.43;101815.38;5034516;28;827;-65
2021/10/18 03:06:31;;;;;;;;;;;;;;;15.15;73.64;101811.06;5034531;28;1056;-65
2021/10/18 03:08:56;;;;;;;;;;;;;;;15.16;73.89;101812.78;5034353;28;1817;-64
2021/10/18 03:11:21;;;;;;;;;;;;;;;15.17;73.26;101811.84;5034175;28;1951;-65
2021/10/18 03:13:46;;;;;;;;;;;;;;;15.16;73.83;101823.53;5034795;28;1021;-65
2021/10/18 03:16:11;;;;;;;;;;;;;;;15.15;73.86;101811.94;5034680;28;902;-65
2021/10/18 03:18:36;;;;;;;;;;;;;;;15.17;73.94;101825.25;5038339;28;1930;-64
2021/10/18 03:21:01;;;;;;;;;;;;;;;15.16;73.07;101820.84;5038338;28;843;-64
2021/10/18 03:23:26;;;;;;;;;;;;;;;15.14;74.04;101826.31;5038242;28;1280;-64
2021/10/18 03:25:52;;;;;;;;;;;;;;;15.14;73.59;101826.31;5038190;28;1013;-63
2021/10/18 03:28:17;;;;;;;;;;;;;;;15.15;73.64;101824.50;5038062;28;1079;-64
2021/10/18 03:30:42;;;;;;;;;;;;;;;15.14;73.23;101838.88;5037879;28;1883;-64
2021/10/18 03:33:07;;;;;;;;;;;;;;;15.13;73.39;101834.47;5037851;28;1902;-64
2021/10/18 03:35:32;;;;;;;;;;;;;;;15.11;73.23;101826.53;5038156;28;1195;-64
2021/10/18 03:37:57;;;;;;;;;;;;;;;15.12;73.78;101833.63;5037525;28;1584;-64
2021/10/18 03:40:22;;;;;;;;;;;;;;;15.11;73.83;101831.91;5037817;28;1548;-64
2021/10/18 03:42:47;;;;;;;;;;;;;;;15.12;73.29;101833.63;5037060;28;2209;-64
2021/10/18 03:45:12;;;;;;;;;;;;;;;15.12;73.69;101830.06;5038336;28;918;-64
2021/10/18 03:47:37;;;;;;;;;;;;;;;15.11;73.34;101839.94;5037547;28;850;-63
2021/10/18 03:50:02;;;;;;;;;;;;;;;15.10;73.27;101845.44;5037588;28;1847;-63
2021/10/18 03:52:28;;;;;;;;;;;;;;;15.10;73.47;101848.97;5037951;28;1892;-62
2021/10/18 03:54:53;;;;;;;;;;;;;;;15.09;73.43;101844.56;5037586;28;1006;-65
2021/10/18 03:57:18;;;;;;;;;;;;;;;15.09;73.23;101844.56;5037543;28;1069;-65
2021/10/18 03:59:43;;;;;;;;;;;;;;;15.09;73.54;101849.94;5037915;28;923;-64
2021/10/18 04:02:09;;;;;;;;;;;;;;;15.09;73.50;101846.38;5037386;28;1200;-65
2021/10/18 04:04:34;;;;;;;;;;;;;;;15.08;73.64;101848.22;5037882;28;791;-65
2021/10/18 04:06:59;;;;;;;;;;;;;;;15.07;73.30;101845.63;5037357;28;910;-65
2021/10/18 04:09:25;;;;;;;;;;;;;;;15.08;73.27;101842.84;5037109;28;1814;-65
2021/10/18 04:11:50;;;;;;;;;;;;;;;15.07;73.17;101843.81;5036951;28;1973;-64
2021/10/18 04:14:15;;;;;;;;;;;;;;;15.06;73.64;101843.91;5036399;28;1808;-63
2021/10/18 04:16:40;;;;;;;;;;;;;;;15.05;73.72;101839.53;5037252;28;1729;-63
2021/10/18 04:19:05;;;;;;;;;;;;;;;15.06;73.14;101843.91;5037031;28;958;-64
2021/10/18 04:21:30;;;;;;;;;;;;;;;15.04;73.49;101846.72;5037334;28;1648;-63
2021/10/18 04:23:55;;;;;;;;;;;;;;;15.05;73.24;101843.03;5037654;28;1244;-63
2021/10/18 04:26:20;;;;;;;;;;;;;;;15.05;73.10;101842.22;5037423;28;1076;-63
2021/10/18 04:28:45;;;;;;;;;;;;;;;15.05;73.13;101839.53;5035940;28;1874;-63
2021/10/18 04:31:10;;;;;;;;;;;;;;;15.05;72.92;101837.66;5036867;28;1666;-63
2021/10/18 04:33:35;;;;;;;;;;;;;;;15.05;73.49;101842.22;5019039;28;1965;-63
2021/10/18 04:36:01;;;;;;;;;;;;;;;15.02;73.28;101845.97;5037484;28;1368;-64
2021/10/18 04:38:26;;;;;;;;;;;;;;;15.04;73.60;101840.50;5017113;28;1575;-64
2021/10/18 04:40:51;;;;;;;;;;;;;;;15.02;73.52;101831.69;5023770;28;1169;-64
2021/10/18 04:43:16;;;;;;;;;;;;;;;15.03;73.45;101838.78;5036606;28;1950;-64
2021/10/18 04:45:41;;;;;;;;;;;;;;;15.02;73.23;101845.97;5036225;28;2123;-64
2021/10/18 04:48:06;;;;;;;;;;;;;;;15.01;73.06;101846.94;5036452;28;1930;-64
2021/10/18 04:50:31;;;;;;;;;;;;;;;15.01;73.73;101851.44;5036643;28;1582;-64
2021/10/18 04:52:56;;;;;;;;;;;;;;;15.00;73.14;101849.72;5036854;28;1914;-64
2021/10/18 04:55:21;;;;;;;;;;;;;;;15.00;73.50;101860.44;5037174;28;953;-65
2021/10/18 04:57:46;;;;;;;;;;;;;;;14.99;73.54;101859.59;5035855;28;1618;-63
2021/10/18 05:00:11;;;;;;;;;;;;;;;15.04;74.05;101857.47;5035629;28;1713;-64
2021/10/18 05:02:36;;;;;;;;;;;;;;;15.24;78.57;101848.03;5036101;28;1698;-64
2021/10/18 05:05:01;;;;;;;;;;;;;;;15.31;79.92;101860.06;5036789;28;1986;-67
2021/10/18 05:07:27;;;;;;;;;;;;;;;15.30;78.16;101861.03;5036432;28;1905;-62
2021/10/18 05:09:52;;;;;;;;;;;;;;;15.28;78.80;101860.28;5036095;28;1812;-63
2021/10/18 05:12:17;;;;;;;;;;;;;;;15.35;79.13;101869.66;5035504;28;2089;-63
2021/10/18 05:14:42;;;;;;;;;;;;;;;15.35;78.58;101871.47;5035892;28;1753;-62
2021/10/18 05:17:07;;;;;;;;;;;;;;;15.31;78.16;101870.81;5035981;28;1834;-62
2021/10/18 05:19:32;;;;;;;;;;;;;;;15.28;77.61;101865.66;5035611;28;1580;-62
2021/10/18 05:21:57;;;;;;;;;;;;;;;15.27;77.82;101872.84;5035356;28;1653;-62
2021/10/18 05:24:22;;;;;;;;;;;;;;;15.25;77.18;101872.09;5035433;28;1663;-62
2021/10/18 05:26:47;;;;;;;;;;;;;;;15.24;76.67;101869.50;5034823;28;1676;-63
2021/10/18 05:29:13;;;;;;;;;;;;;;;15.24;77.25;101870.38;5034711;28;1707;-63
2021/10/18 05:31:38;;;;;;;;;;;;;;;15.22;76.52;101856.22;5034642;28;1962;-63
2021/10/18 05:34:03;;;;;;;;;;;;;;;15.22;76.58;101871.47;5035480;28;1684;-63
2021/10/18 05:36:28;;;;;;;;;;;;;;;15.22;76.56;101869.63;5034605;28;1567;-63
2021/10/18 05:38:53;;;;;;;;;;;;;;;15.21;76.68;101867.91;5033538;28;1714;-63
2021/10/18 05:41:18;;;;;;;;;;;;;;;15.19;76.51;101871.66;5014119;28;2076;-62
2021/10/18 05:43:43;;;;;;;;;;;;;;;15.18;76.10;101869.94;5033597;28;2093;-63
2021/10/18 05:46:08;;;;;;;;;;;;;;;15.16;76.12;101874.56;5035622;28;1876;-63
2021/10/18 05:48:34;;;;;;;;;;;;;;;15.13;75.96;101874.75;5034909;28;1719;-63
2021/10/18 05:50:59;;;;;;;;;;;;;;;15.21;76.47;101880.47;5035930;28;820;-60
2021/10/18 05:53:25;;;;;;;;;;;;;;;15.24;75.81;101875.72;5035320;28;1961;-61
2021/10/18 05:55:50;;;;;;;;;;;;;;;15.21;75.41;101884.03;5017882;28;918;-62
2021/10/18 05:58:15;;;;;;;;;;;;;;;15.17;75.39;101878.97;5026793;28;1813;-62
2021/10/18 06:00:40;;;;;;;;;;;;;;;15.13;76.04;101885.50;5015853;28;1014;-61
2021/10/18 06:03:05;;;;;;;;;;;;;;;15.11;75.51;101874.84;5013871;28;931;-61
2021/10/18 06:05:30;;;;;;;;;;;;;;;15.10;75.35;101866.91;5015524;28;1026;-60
2021/10/18 06:07:55;;;;;;;;;;;;;;;15.10;75.40;101866.91;5015548;28;879;-61
2021/10/18 06:10:20;;;;;;;;;;;;;;;15.07;75.36;101856.38;5015324;28;1834;-62
2021/10/18 06:12:45;;;;;;;;;;;;;;;15.05;75.43;101875.25;5002948;28;2028;-60
2021/10/18 06:15:11;;;;;;;;;;;;;;;15.06;75.45;101865.38;5028107;28;2191;-60
2021/10/18 06:17:36;;;;;;;;;;;;;;;15.06;75.54;101865.38;5035287;28;894;-61
2021/10/18 06:20:01;;;;;;;;;;;;;;;15.05;75.04;101859.16;5035125;28;896;-62
2021/10/18 06:22:27;;;;;;;;;;;;;;;15.05;75.53;101869.88;5034868;28;796;-61
2021/10/18 06:24:52;;;;;;;;;;;;;;;15.05;75.32;101875.25;5035182;28;1442;-62
2021/10/18 06:27:18;;;;;;;;;;;;;;;15.06;75.04;101881.50;5034542;28;1818;-62
2021/10/18 06:29:43;;;;;;;;;;;;;;;15.06;75.23;101886.84;5035074;28;788;-62
2021/10/18 06:32:08;;;;;;;;;;;;;;;15.05;75.12;101880.63;5034658;28;1906;-62
2021/10/18 06:34:33;;;;;;;;;;;;;;;15.04;74.78;101884.31;5035000;28;1148;-62
2021/10/18 06:36:58;;;;;;;;;;;;;;;15.04;74.88;101881.63;5035072;28;1663;-62
2021/10/18 06:39:23;;;;;;;;;;;;;;;15.06;75.02;101886.84;5034512;28;1017;-62
2021/10/18 06:41:48;;;;;;;;;;;;;;;15.05;74.48;101901.28;5034791;28;1169;-62
2021/10/18 06:44:13;;;;;;;;;;;;;;;15.07;74.85;101905.56;5034993;28;997;-62
2021/10/18 06:46:38;;;;;;;;;;;;;;;15.09;74.62;101894.72;5034884;28;1064;-61
2021/10/18 06:49:04;;;;;;;;;;;;;;;15.09;74.61;101895.56;5034844;28;988;-62
2021/10/18 06:51:35;;;;;;;;;;;;;;;15.08;74.19;101896.53;5035893;28;1918;-61
2021/10/18 06:54:00;;;;;;;;;;;;;;;15.09;74.07;101889.34;5038931;28;878;-61
2021/10/18 06:56:26;;;;;;;;;;;;;;;15.09;74.67;101889.34;5038400;28;1934;-61
2021/10/18 06:58:51;;;;;;;;;;;;;;;15.07;74.70;101896.63;5039275;28;858;-61
2021/10/18 07:01:16;;;;;;;;;;;;;;;15.07;74.04;101904.69;5038799;28;1053;-61
2021/10/18 07:03:41;;;;;;;;;;;;;;;15.08;74.05;101917.16;5038412;28;1835;-62
2021/10/18 07:06:06;;;;;;;;;;;;;;;15.09;73.86;101908.13;5038301;28;994;-61
2021/10/18 07:08:31;;;;;;;;;;;;;;;15.07;73.89;101910.06;5038880;28;1018;-61
2021/10/18 07:10:56;;;;;;;;;;;;;;;15.07;74.06;101907.38;5038485;28;995;-61
2021/10/18 07:13:21;;;;;;;;;;;;;;;15.07;73.75;101902.88;5037446;28;1953;-60
2021/10/18 07:15:46;;;;;;;;;;;;;;;15.07;74.18;101905.56;5038112;28;1856;-60
2021/10/18 07:18:11;;;;;;;;;;;;;;;15.07;74.21;101908.22;5038319;28;1744;-61
2021/10/18 07:20:36;;;;;;;;;;;;;;;15.10;73.78;101910.72;5038115;28;1923;-61
2021/10/18 07:23:06;;;;;;;;;;;;;;;15.13;73.45;101907.84;5037961;28;1633;-61
2021/10/18 07:25:31;;;;;;;;;;;;;;;15.14;72.94;101904.19;5038459;28;1923;-61
2021/10/18 07:27:56;;;;;;;;;;;;;;;15.15;73.45;101907.72;5037778;28;1903;-62
2021/10/18 07:30:21;;;;;;;;;;;;;;;15.16;72.99;101907.63;5037238;28;1678;-61
2021/10/18 07:32:47;;;;;;;;;;;;;;;15.19;72.57;101915.50;5037667;28;1890;-61
2021/10/18 07:35:12;;;;;;;;;;;;;;;15.19;73.33;101915.50;5037998;28;1116;-61
2021/10/18 07:37:37;;;;;;;;;;;;;;;15.21;72.67;101916.25;5037846;28;2101;-61
2021/10/18 07:40:03;;;;;;;;;;;;;;;15.23;72.71;101927.72;5037968;28;2158;-61
2021/10/18 07:42:28;;;;;;;;;;;;;;;15.26;72.35;101934.72;5038150;28;1457;-62
2021/10/18 07:44:53;;;;;;;;;;;;;;;15.27;72.38;101933.75;5037685;28;1906;-62
2021/10/18 07:47:19;;;;;;;;;;;;;;;15.28;72.70;101940.84;5036619;28;1955;-61
2021/10/18 07:49:44;;;;;;;;;;;;;;;15.34;72.60;101936.91;5037107;28;1960;-61
2021/10/18 07:52:12;;;;;;;;;;;;;;;15.40;72.38;101945.41;5037421;28;2029;-61
2021/10/18 07:54:37;;;;;;;;;;;;;;;15.40;72.50;101949.94;5037808;28;768;-60
2021/10/18 07:57:02;;;;;;;;;;;;;;;15.37;72.30;101944.75;5037216;28;1990;-60
2021/10/18 07:59:27;;;;;;;;;;;;;;;15.37;72.70;101951.00;5037764;28;2021;-61
2021/10/18 08:01:54;;;;;;;;;;;;;;;15.37;72.38;101950.13;5037101;28;1947;-60
2021/10/18 08:04:19;;;;;;;;;;;;;;;15.38;72.67;101952.72;5037575;28;990;-61
2021/10/18 08:06:44;;;;;;;;;;;;;;;15.39;73.39;101943.69;5037826;28;1001;-60
2021/10/18 08:09:10;;;;;;;;;;;;;;;15.42;73.64;101938.09;5036592;28;2302;-60
2021/10/18 08:11:35;;;;;;;;;;;;;;;15.44;73.48;101940.66;5037311;28;2136;-60
2021/10/18 08:14:00;;;;;;;;;;;;;;;15.48;73.63;101943.06;5037941;28;1004;-60
2021/10/18 08:16:25;;;;;;;;;;;;;;;15.52;74.08;101944.56;5037510;28;1013;-61
2021/10/18 08:18:52;;;;;;;;;;;;;;;15.53;74.62;101951.66;5037444;28;1929;-61
2021/10/18 08:21:17;;;;;;;;;;;;;;;15.53;74.78;101948.97;5037300;28;2039;-61
2021/10/18 08:23:42;;;;;;;;;;;;;;;15.55;74.04;101949.78;5037082;28;2041;-61
2021/10/18 08:26:07;;;;;;;;;;;;;;;15.63;73.88;101949.22;5037182;28;1855;-61
2021/10/18 08:28:33;;;;;;;;;;;;;;;15.75;73.66;101934.97;5037153;28;891;-60
2021/10/18 08:30:58;;;;;;;;;;;;;;;16.02;73.57;101942.91;5037287;28;833;-61
2021/10/18 08:33:23;;;;;;;;;;;;;;;16.94;71.64;101943.41;5036598;28;1921;-61
2021/10/18 08:35:48;;;;;;;;;;;;;;;16.61;71.97;101943.16;5036725;28;1895;-62
2021/10/18 08:46:05;;;;;;;;;;;;;;;15.88;74.29;101917.00;5036596;28;1863;-62
2021/10/18 08:48:30;;;;;;;;;;;;;;;15.86;74.17;101910.03;5037041;28;974;-61
2021/10/18 08:50:55;;;;;;;;;;;;;;;15.84;74.30;101912.81;5037077;28;990;-62
2021/10/18 08:53:20;;;;;;;;;;;;;;;15.83;74.19;101911.09;5036815;28;1978;-62
2021/10/18 08:55:45;;;;;;;;;;;;;;;15.82;74.12;101897.75;5036589;28;994;-62
2021/10/18 08:58:10;;;;;;;;;;;;;;;15.80;73.98;101895.16;5036745;28;1437;-63
2021/10/18 09:00:35;;;;;;;;;;;;;;;15.79;73.92;101892.59;5036432;28;1901;-62
2021/10/18 09:03:00;;;;;;;;;;;;;;;15.78;74.00;101897.09;5036455;28;1069;-60
2021/10/18 09:05:25;;;;;;;;;;;;;;;15.79;74.09;101887.22;5036322;28;957;-61
2021/10/18 09:07:50;;;;;;;;;;;;;;;15.81;73.62;101886.16;5036187;28;845;-60
2021/10/18 09:10:15;;;;;;;;;;;;;;;15.82;73.97;101892.38;5036443;28;879;-60
2021/10/18 09:12:40;;;;;;;;;;;;;;;15.80;73.99;101880.88;5036121;28;1902;-61
2021/10/18 09:15:05;;;;;;;;;;;;;;;15.80;74.18;101875.50;5035753;28;1860;-62
2021/10/18 09:17:31;;;;;;;;;;;;;;;15.80;73.90;101878.19;5036198;28;1045;-60
2021/10/18 09:19:56;;;;;;;;;;;;;;;15.79;74.07;101877.31;5035931;28;842;-62
2021/10/18 09:22:21;;;;;;;;;;;;;;;15.78;74.07;101880.13;5035953;28;914;-60
2021/10/18 09:24:46;;;;;;;;;;;;;;;15.78;73.74;101875.59;5018434;28;1336;-60
2021/10/18 09:27:11;;;;;;;;;;;;;;;15.78;73.96;101883.66;5035917;28;1103;-60
2021/10/18 09:29:36;;;;;;;;;;;;;;;15.77;74.15;101876.56;5036095;28;845;-61
2021/10/18 09:32:01;;;;;;;;;;;;;;;15.77;73.55;101875.72;5035526;28;1961;-60
2021/10/18 09:34:26;;;;;;;;;;;;;;;15.76;73.74;101868.66;5035505;28;1090;-61
2021/10/18 09:36:51;;;;;;;;;;;;;;;15.75;73.70;101869.59;5035634;28;1309;-61
2021/10/18 09:39:17;;;;;;;;;;;;;;;15.75;73.62;101864.22;5035513;28;938;-61
2021/10/18 09:41:42;;;;;;;;;;;;;;;15.76;73.55;101863.28;5035717;28;1325;-61
2021/10/18 09:44:15;;;;;;;;;;;;;;;15.75;73.41;101874.97;5035952;28;1025;-61
2021/10/18 09:46:49;;;;;;;;;;;;;;;15.76;73.45;101872.19;5036042;28;1709;-61
2021/10/18 10:52:15;;;;;;;;;;;;;;;15.95;72.47;101826.00;4973656;28;1902;-61
2021/10/18 10:54:40;;;;;;;;;;;;;;;15.96;72.89;101823.22;4973822;28;998;-62
2021/10/18 10:57:13;;;;;;;;;;;;;;;15.97;72.67;101810.63;5006528;28;1011;-61
2021/10/18 10:59:38;;;;;;;;;;;;;;;15.97;72.58;101806.13;5015390;28;879;-61
2021/10/18 11:02:03;;;;;;;;;;;;;;;15.97;72.72;101800.75;5023620;28;1485;-61
2021/10/18 11:04:31;;;;;;;;;;;;;;;15.97;72.48;101798.06;5034963;28;843;-61
2021/10/18 11:06:57;;;;;;;;;;;;;;;15.99;72.62;101800.63;5034477;28;854;-61
2021/10/18 11:09:22;;;;;;;;;;;;;;;16.00;72.62;101799.66;5034330;28;843;-61
2021/10/18 11:11:47;;;;;;;;;;;;;;;16.00;72.35;101799.66;5034655;28;2003;-61
2021/10/18 11:14:12;;;;;;;;;;;;;;;16.01;72.58;101793.31;5034778;28;923;-62
2021/10/18 11:16:37;;;;;;;;;;;;;;;16.01;72.63;101790.63;5034332;28;1458;-62
2021/10/18 11:19:02;;;;;;;;;;;;;;;16.03;72.86;101790.53;5034586;28;998;-62
2021/10/18 11:21:27;;;;;;;;;;;;;;;16.03;72.45;101786.00;5034764;28;1619;-62
2021/10/18 11:23:52;;;;;;;;;;;;;;;16.04;72.70;101768.91;5034245;28;1275;-61
2021/10/18 11:26:17;;;;;;;;;;;;;;;16.04;72.99;101768.91;5034250;28;1670;-62
2021/10/18 11:28:42;;;;;;;;;;;;;;;16.06;72.81;101782.25;5034481;28;961;-62
2021/10/18 11:31:07;;;;;;;;;;;;;;;16.06;72.87;101783.09;5034343;28;855;-63
2021/10/18 11:33:33;;;;;;;;;;;;;;;16.08;72.42;101781.16;5034344;28;1898;-61
2021/10/18 11:35:58;;;;;;;;;;;;;;;16.07;72.67;101771.38;5034637;28;1794;-61
2021/10/18 11:38:23;;;;;;;;;;;;;;;16.09;72.95;101760.50;5036086;28;1258;-61
2021/10/18 11:40:48;;;;;;;;;;;;;;;16.09;72.70;101757.81;5020017;28;1915;-61
2021/10/18 11:43:16;;;;;;;;;;;;;;;16.10;72.62;101748.78;5037624;28;950;-61
2021/10/18 11:45:41;;;;;;;;;;;;;;;16.10;72.68;101759.53;5038022;28;1016;-61
2021/10/18 11:48:06;;;;;;;;;;;;;;;16.11;72.79;101758.56;5038161;28;1002;-62
2021/10/18 11:50:36;;;;;;;;;;;;;;;16.12;72.54;101747.66;5038099;28;866;-61
2021/10/18 11:53:02;;;;;;;;;;;;;;;16.12;72.54;101739.59;5038162;28;1913;-61
2021/10/18 11:55:27;;;;;;;;;;;;;;;16.14;72.31;101743.03;5037789;28;1029;-61
2021/10/18 11:57:52;;;;;;;;;;;;;;;16.15;72.82;101743.91;5037851;28;982;-61
2021/10/18 12:00:17;;;;;;;;;;;;;;;16.15;72.45;101743.91;5037578;28;1957;-62
2021/10/18 12:02:43;;;;;;;;;;;;;;;16.14;72.61;101748.41;5037519;28;1972;-61
2021/10/18 12:05:08;;;;;;;;;;;;;;;16.16;72.74;101746.47;5037722;28;831;-61
2021/10/18 12:07:33;;;;;;;;;;;;;;;16.15;72.56;101739.38;5037520;28;803;-61
2021/10/18 12:09:58;;;;;;;;;;;;;;;16.16;72.79;101741.09;5037393;28;1072;-61
2021/10/18 12:12:23;;;;;;;;;;;;;;;16.16;72.79;101727.66;5037131;28;1890;-62
2021/10/18 12:14:49;;;;;;;;;;;;;;;16.17;73.06;101717.75;5037780;28;978;-61
2021/10/18 12:17:14;;;;;;;;;;;;;;;16.19;72.41;101707.75;5037259;28;1061;-61
2021/10/18 12:19:39;;;;;;;;;;;;;;;16.18;72.78;101714.97;5037620;28;1648;-61
2021/10/18 12:22:04;;;;;;;;;;;;;;;16.19;72.79;101715.81;5037341;28;1944;-61
2021/10/18 12:24:34;;;;;;;;;;;;;;;16.22;72.44;101707.53;5019412;28;1255;-61
2021/10/18 12:27:03;;;;;;;;;;;;;;;16.21;72.53;101712.03;5037262;28;1349;-62
2021/10/18 12:29:28;;;;;;;;;;;;;;;16.21;72.98;101713.88;5037369;28;827;-61
2021/10/18 12:31:53;;;;;;;;;;;;;;;16.21;72.94;101712.03;5037156;28;1961;-61
2021/10/18 12:34:19;;;;;;;;;;;;;;;16.22;72.61;101708.38;5036867;28;1316;-61
2021/10/18 12:36:44;;;;;;;;;;;;;;;16.25;72.87;101718.91;5036968;28;1929;-62
2021/10/18 12:39:09;;;;;;;;;;;;;;;16.25;72.46;101708.16;5037177;28;1575;-61
2021/10/18 12:41:34;;;;;;;;;;;;;;;16.25;72.71;101697.41;5036545;28;1954;-62
2021/10/18 12:43:59;;;;;;;;;;;;;;;16.24;72.60;101684.06;5035923;28;2004;-61
2021/10/18 12:46:24;;;;;;;;;;;;;;;16.27;72.50;101691.91;5037095;28;898;-62
2021/10/18 12:48:49;;;;;;;;;;;;;;;16.26;72.44;101715.25;5036384;28;847;-61
2021/10/18 12:51:14;;;;;;;;;;;;;;;16.28;72.61;101733.97;5036629;28;958;-61
2021/10/18 12:53:39;;;;;;;;;;;;;;;16.27;72.67;101738.50;5036651;28;1966;-61
2021/10/18 12:56:05;;;;;;;;;;;;;;;16.28;72.77;101728.59;5036611;28;1077;-61
2021/10/18 12:58:36;;;;;;;;;;;;;;;16.27;72.83;101722.34;5036612;28;1030;-61
2021/10/18 13:01:01;;;;;;;;;;;;;;;16.28;72.26;101737.53;5036752;28;1883;-62
2021/10/18 13:03:26;;;;;;;;;;;;;;;16.30;72.50;101740.09;5036328;28;796;-61
2021/10/18 13:05:51;;;;;;;;;;;;;;;16.31;72.33;101739.09;5036441;28;966;-62
2021/10/18 13:08:17;;;;;;;;;;;;;;;16.28;72.68;101740.22;5036526;28;843;-61
2021/10/18 13:10:42;;;;;;;;;;;;;;;16.30;72.36;101742.78;5036355;28;807;-61
2021/10/18 13:13:07;;;;;;;;;;;;;;;16.28;72.74;101742.91;5036039;28;1914;-61
2021/10/18 13:15:32;;;;;;;;;;;;;;;16.30;72.50;101753.56;5036044;28;1025;-61
2021/10/18 13:17:57;;;;;;;;;;;;;;;16.31;72.80;101741.78;5036162;28;1568;-61
2021/10/18 13:20:25;;;;;;;;;;;;;;;16.32;72.16;101733.59;5036249;28;1931;-61
2021/10/18 13:22:52;;;;;;;;;;;;;;;16.37;72.41;101743.16;5036186;28;926;-61
2021/10/18 13:25:17;;;;;;;;;;;;;;;16.43;72.27;101737.34;5036444;28;1359;-61
2021/10/18 13:27:42;;;;;;;;;;;;;;;16.49;72.09;101740.41;5035642;28;1044;-61
2021/10/18 13:30:07;;;;;;;;;;;;;;;16.59;71.86;101735.19;5035982;28;903;-62
2021/10/18 13:32:32;;;;;;;;;;;;;;;16.68;71.23;101737.22;5035745;28;2048;-61
2021/10/18 13:34:57;;;;;;;;;;;;;;;16.76;71.11;101724.03;5035880;28;1152;-61
2021/10/18 13:37:23;;;;;;;;;;;;;;;16.81;71.24;101716.47;5036019;28;1551;-61
2021/10/18 13:39:50;;;;;;;;;;;;;;;16.89;70.52;101707.78;5035685;28;1787;-61
2021/10/18 13:42:15;;;;;;;;;;;;;;;16.96;70.69;101715.28;5035895;28;971;-61
2021/10/18 13:44:40;;;;;;;;;;;;;;;16.93;71.33;101699.34;5035504;28;855;-61
2021/10/18 13:47:05;;;;;;;;;;;;;;;16.90;71.23;101702.28;5035508;28;843;-62
2021/10/18 13:49:30;;;;;;;;;;;;;;;16.89;71.27;101702.41;5035712;28;938;-61